ポートルイス の空港の天気 - METARとTAF

サー・シウサガル・ラングラーム国際空港 ( FIMP / MRU ) - モーリシャス ポートルイス
飛行場実況気象(Metar)
観測時間10/20 08:00 MUT (10/20 04:00 UTC)
風向・風速東南東 6m/s
視程10km以上
天気現象
全天の4割程度の雲 雲底高度 550m
全天の4割程度の雲 雲底高度 1520m
気温24℃
湿度69%
気圧1020hPa
METARFIMP 200400Z 11011KT 9999 SCT018 SCT050 24/18 Q1020
過去の天気等 Google飛行場航空写真 Wunderground天気予報

過去48時間のMETAR

飛行場予報(TAF)
発表時間: 10/20 03:40 MUT (10/19 23:40 UTC)
予報対象時間: 20日4時 MUT ~ 21日10時 MUT
風向・風速東 6m/s 瞬間風速 12m/s
視程10km以上
全天の4割程度の雲 雲底高度 490m
全天の8割程度の雲 雲底高度 1520m
20日16時 MUT ~ 21日10時 MUT に一時的に
視程7000m
天気現象弱いしゅう雨
少しの雲 雲底高度 300m
全天の8割程度の雲 雲底高度 460m
TAF FIMP 192340Z 2000/2106 10012G23KT 9999 SCT016 BKN050
TEMPO 2012/2106 7000 -SHRA FEW010 BKN015